Huvudsida
METAR-TAF:

METAR-TAF

Flygplatser :

Troyes, Frankrike

latitud: 48-20N, longitud: 004-01E, höjd: 118 m

Aktuellt väderrapport

Denna rapport gjordes för 33 minuter sedan, klockan 14:30 UTC
Vind 13 kt från nord, varierande mellan nord/nordväst och nordost
Temperatur 7°C
Fuktighet 42%
Tryck 1024 hPa
Sikt 10 km eller mer
Inga moln under 1 500 m eller inga cumulonimbus

METAR: LFQB 291430Z AUTO 01013KT 340V040 CAVOK 07/M05 Q1024

Tid: 17:03 (15:03 UTC)


TAF: saknas

Aktuella väderrapporter och prognoser från 4000 flygplatser (METAR- och TAF-rapporter).

De tillgängliga stationerna syns som gula och röda prickar på kartan.

För musen över prickarna för att se namnen på stationerna.

Klicka sedan för att få väderrapporter och prognoser.

För att ändra kartan: Klicka på de gröna knapparna med ett svart kors på för att zooma in; den gröna knappen med ett streck på för att zooma ut; eller på de gröna pilarna för angränsande kartor.


METAR-TAF: